createdAt,value
2022-10-21T00:02:09.526Z,101090.47
2022-10-21T00:04:36.112Z,101093.97
2022-10-21T00:07:02.779Z,101092.88
2022-10-21T00:09:29.529Z,101096.47
2022-10-21T00:11:56.181Z,101087.06
2022-10-21T00:14:22.899Z,101080.56
2022-10-21T00:16:49.649Z,101076.50
2022-10-21T00:19:16.337Z,101073.00
2022-10-21T00:21:42.999Z,101073.87
2022-10-21T00:24:09.631Z,101080.91
2022-10-21T00:26:38.412Z,101080.19
2022-10-21T00:29:05.389Z,101073.31
2022-10-21T00:31:32.089Z,101078.75
2022-10-21T00:33:58.795Z,101079.41
2022-10-21T00:36:25.444Z,101070.66
2022-10-21T00:38:52.075Z,101074.13
2022-10-21T00:41:19.498Z,101078.53
2022-10-21T00:43:53.328Z,101071.63
2022-10-21T00:46:22.312Z,101062.66
2022-10-21T00:48:52.631Z,101070.97
2022-10-21T00:51:19.328Z,101065.22
2022-10-21T00:53:48.077Z,101057.09
2022-10-21T00:56:18.414Z,101049.59
2022-10-21T00:58:46.717Z,101050.44
2022-10-21T01:01:17.754Z,101041.44
2022-10-21T01:03:47.542Z,101037.97
2022-10-21T01:06:15.918Z,101037.28
2022-10-21T01:08:42.694Z,101038.22
2022-10-21T01:11:13.142Z,101042.66
2022-10-21T01:13:44.218Z,101044.50
2022-10-21T01:16:10.779Z,101030.53
2022-10-21T01:18:42.619Z,101025.69
2022-10-21T01:21:24.480Z,101018.97
2022-10-21T01:23:51.093Z,101007.63
2022-10-21T01:26:36.706Z,101017.97
2022-10-21T01:29:06.090Z,101014.84
2022-10-21T01:31:39.930Z,101011.34
2022-10-21T01:34:15.928Z,101004.75
2022-10-21T01:36:46.909Z,100994.47
2022-10-21T01:39:16.529Z,100997.94
2022-10-21T01:41:57.099Z,101000.94
2022-10-21T01:44:27.852Z,101002.28
2022-10-21T01:46:57.453Z,101003.22
2022-10-21T01:49:28.393Z,101004.13
2022-10-21T01:51:55.101Z,100986.78
2022-10-21T01:54:28.281Z,100998.78
2022-10-21T01:56:55.978Z,100986.00
2022-10-21T01:59:25.387Z,100988.38
2022-10-21T02:01:52.439Z,100995.19
2022-10-21T02:04:19.448Z,100999.94
2022-10-21T02:06:46.126Z,100988.38
2022-10-21T02:09:12.811Z,100986.44
2022-10-21T02:11:41.824Z,100988.22
2022-10-21T02:14:15.155Z,100989.41
2022-10-21T02:16:41.892Z,100986.34
2022-10-21T02:19:15.043Z,100979.25
2022-10-21T02:21:41.801Z,100975.06
2022-10-21T02:24:16.520Z,100975.78
2022-10-21T02:26:43.383Z,100976.84
2022-10-21T02:29:14.022Z,100983.91
2022-10-21T02:32:00.631Z,100971.66
2022-10-21T02:34:43.668Z,100983.97
2022-10-21T02:37:13.579Z,100984.81
2022-10-21T03:02:42.410Z,100945.13
2022-10-21T03:17:42.222Z,100958.47
2022-10-21T03:20:58.907Z,100957.56
2022-10-21T03:23:28.856Z,100951.34
2022-10-21T03:25:56.582Z,100947.97
2022-10-21T03:28:23.665Z,100948.81
2022-10-21T03:30:50.480Z,100956.69
2022-10-21T03:33:17.679Z,100957.56
2022-10-21T03:35:44.454Z,100946.84
2022-10-21T03:38:11.492Z,100936.56
2022-10-21T03:40:38.402Z,100924.97
2022-10-21T03:43:10.050Z,100924.31
2022-10-21T03:45:36.987Z,100918.16
2022-10-21T03:48:05.263Z,100924.25
2022-10-21T04:03:25.964Z,100932.03
2022-10-21T04:06:07.854Z,100928.56
2022-10-21T04:20:54.225Z,100917.94
2022-10-21T04:24:19.566Z,100907.50
2022-10-21T04:26:46.371Z,100904.03
2022-10-21T04:29:13.324Z,100907.47
2022-10-21T04:31:40.071Z,100896.16
2022-10-21T04:34:06.994Z,100894.41
2022-10-21T04:36:35.673Z,100888.31
2022-10-21T04:39:09.885Z,100894.44
2022-10-21T04:41:37.848Z,100900.56
2022-10-21T04:44:06.588Z,100901.34
2022-10-21T04:46:33.484Z,100891.88
2022-10-21T04:49:09.585Z,100891.00
2022-10-21T04:51:36.536Z,100897.13
2022-10-21T04:54:03.918Z,100901.47
2022-10-21T04:56:30.747Z,100912.81
2022-10-21T04:58:57.921Z,100918.03
2022-10-21T05:01:25.093Z,100917.12
2022-10-21T05:03:56.287Z,100914.25
2022-10-21T05:06:23.508Z,100916.16
2022-10-21T05:08:55.767Z,100914.34
2022-10-21T05:11:22.652Z,100918.50
2022-10-21T05:13:49.562Z,100920.44
2022-10-21T05:16:21.192Z,100918.37
2022-10-21T05:18:50.374Z,100912.16
2022-10-21T05:21:20.173Z,100900.31
2022-10-21T05:23:58.572Z,100900.72
2022-10-21T05:26:25.670Z,100888.66
2022-10-21T05:28:52.757Z,100887.09
2022-10-21T05:31:19.608Z,100878.53
2022-10-21T05:33:46.550Z,100881.16
2022-10-21T05:36:13.423Z,100885.59
2022-10-21T05:38:40.736Z,100890.00
2022-10-21T05:41:08.493Z,100886.56
2022-10-21T05:43:36.215Z,100889.13
2022-10-21T05:46:11.200Z,100891.97
2022-10-21T05:48:38.384Z,100894.59
2022-10-21T05:54:25.448Z,100891.13
2022-10-21T06:10:28.167Z,100893.53
2022-10-21T06:21:41.719Z,100899.59
2022-10-21T06:24:33.111Z,100903.88
2022-10-21T06:36:11.162Z,100906.66
2022-10-21T06:53:06.414Z,100899.00
2022-10-21T06:59:03.211Z,100897.25
2022-10-21T07:05:16.156Z,100899.00
2022-10-21T07:14:27.931Z,100891.91
2022-10-21T07:17:02.698Z,100897.25
2022-10-21T07:23:03.473Z,100889.38
2022-10-21T07:25:55.529Z,100879.69
2022-10-21T07:28:27.382Z,100877.97
2022-10-21T07:31:33.507Z,100878.84
2022-10-21T07:43:32.634Z,100877.91
2022-10-21T07:51:59.561Z,100865.69
2022-10-21T07:54:47.822Z,100860.41
2022-10-21T08:04:37.907Z,100860.28
2022-10-21T08:07:39.164Z,100865.59
2022-10-21T08:10:11.312Z,100862.16
2022-10-21T08:22:47.771Z,100848.13
2022-10-21T08:32:18.842Z,100828.84
2022-10-21T08:50:22.185Z,100819.13
2022-10-21T08:56:03.962Z,100833.16
2022-10-21T08:59:06.522Z,100826.09
2022-10-21T09:02:08.109Z,100818.03
2022-10-21T09:05:08.981Z,100823.44
2022-10-21T09:07:48.971Z,100827.84
2022-10-21T09:10:42.713Z,100809.38
2022-10-21T09:13:23.710Z,100809.22
2022-10-21T09:16:15.203Z,100807.53
2022-10-21T09:18:54.381Z,100793.28
2022-10-21T09:21:42.032Z,100800.53
2022-10-21T09:24:28.443Z,100783.97
2022-10-21T09:27:19.490Z,100782.13
2022-10-21T09:32:54.112Z,100777.59
2022-10-21T09:35:34.155Z,100774.06
2022-10-21T09:38:17.332Z,100776.37
2022-10-21T09:40:50.731Z,100775.56
2022-10-21T09:43:18.891Z,100766.97
2022-10-21T09:45:53.563Z,100772.19
2022-10-21T09:48:27.200Z,100765.72
2022-10-21T09:51:06.199Z,100757.28
2022-10-21T09:54:07.255Z,100749.94
2022-10-21T09:59:30.344Z,100760.53
2022-10-21T10:02:14.040Z,100761.72
2022-10-21T10:04:43.142Z,100751.31
2022-10-21T10:07:31.351Z,100745.69
2022-10-21T10:10:09.365Z,100732.78
2022-10-21T10:13:21.283Z,100732.56
2022-10-21T10:15:48.572Z,100722.00
2022-10-21T10:18:23.355Z,100716.69
2022-10-21T10:25:02.459Z,100719.19
2022-10-21T10:28:12.830Z,100721.16
2022-10-21T10:31:05.267Z,100707.06
2022-10-21T10:33:45.805Z,100716.38
2022-10-21T10:36:25.591Z,100698.03
2022-10-21T10:39:09.569Z,100695.34
2022-10-21T10:41:46.640Z,100694.50
2022-10-21T10:44:35.189Z,100696.12
2022-10-21T10:47:06.492Z,100690.78
2022-10-21T10:50:03.314Z,100683.38
2022-10-21T10:52:30.880Z,100671.69
2022-10-21T10:58:40.470Z,100664.69
2022-10-21T11:01:19.814Z,100668.97
2022-10-21T11:04:06.929Z,100653.06
2022-10-21T11:07:15.810Z,100653.94
2022-10-21T11:09:56.930Z,100635.72
2022-10-21T11:12:40.048Z,100638.16
2022-10-21T11:15:14.818Z,100641.53
2022-10-21T11:17:48.059Z,100638.47
2022-10-21T11:20:37.232Z,100633.87
2022-10-21T11:24:27.151Z,100626.00
2022-10-21T11:27:13.433Z,100621.94
2022-10-21T11:30:00.342Z,100615.97
2022-10-21T11:32:33.218Z,100612.66
2022-10-21T11:35:05.692Z,100607.72
2022-10-21T11:41:10.565Z,100600.75
2022-10-21T11:44:03.942Z,100586.69
2022-10-21T11:50:09.291Z,100589.59
2022-10-21T12:05:31.802Z,100555.19
2022-10-21T12:11:53.732Z,100535.91
2022-10-21T12:17:28.959Z,100530.34
2022-10-21T12:20:07.747Z,100529.38
2022-10-21T12:23:03.510Z,100524.66
2022-10-21T12:25:39.976Z,100527.94
2022-10-21T12:28:36.820Z,100527.69
2022-10-21T12:31:20.623Z,100516.81
2022-10-21T12:44:05.320Z,100499.88
2022-10-21T12:46:46.820Z,100508.91
2022-10-21T12:52:42.981Z,100493.50
2022-10-21T13:05:20.846Z,100493.19
2022-10-21T13:08:27.570Z,100487.63
2022-10-21T13:14:43.480Z,100490.53
2022-10-21T13:24:03.469Z,100482.81
2022-10-21T13:46:10.422Z,100460.41
2022-10-21T13:55:07.139Z,100461.66
2022-10-21T13:58:25.259Z,100473.69
2022-10-21T14:01:40.584Z,100458.28
2022-10-21T15:01:22.724Z,100423.63
2022-10-21T15:03:51.470Z,100412.63
2022-10-21T15:06:26.411Z,100423.13
2022-10-21T15:08:56.195Z,100413.28
2022-10-21T15:11:43.462Z,100423.28
2022-10-21T15:14:29.185Z,100413.97
2022-10-21T15:16:57.718Z,100416.87
2022-10-21T15:19:29.497Z,100403.37
2022-10-21T15:22:01.209Z,100397.25
2022-10-21T15:24:43.311Z,100397.78
2022-10-21T15:27:25.616Z,100402.97
2022-10-21T15:29:52.864Z,100401.03
2022-10-21T15:32:24.344Z,100401.62
2022-10-21T15:34:54.514Z,100406.56
2022-10-21T15:37:22.673Z,100392.50
2022-10-21T15:39:58.949Z,100388.44
2022-10-21T15:42:45.130Z,100390.78
2022-10-21T15:45:19.037Z,100382.22
2022-10-21T15:47:52.706Z,100373.03
2022-10-21T15:50:28.402Z,100383.75
2022-10-21T15:55:22.990Z,100380.69
2022-10-21T15:57:49.995Z,100389.13
2022-10-21T16:00:19.267Z,100391.16
2022-10-21T16:02:51.291Z,100387.47
2022-10-21T16:05:19.098Z,100393.03
2022-10-21T16:07:46.210Z,100394.03
2022-10-21T16:10:13.240Z,100391.78
2022-10-21T16:12:43.110Z,100384.72
2022-10-21T16:15:10.383Z,100383.47
2022-10-21T16:17:37.563Z,100381.12
2022-10-21T16:20:07.020Z,100383.03
2022-10-21T16:22:33.880Z,100379.56
2022-10-21T16:25:01.132Z,100379.03
2022-10-21T16:27:43.920Z,100369.81
2022-10-21T16:30:35.090Z,100374.50
2022-10-21T16:33:12.001Z,100367.72
2022-10-21T16:35:41.426Z,100378.56
2022-10-21T16:38:11.860Z,100389.81
2022-10-21T16:40:41.242Z,100391.44
2022-10-21T16:43:10.369Z,100392.41
2022-10-21T16:45:40.359Z,100385.50
2022-10-21T16:48:09.613Z,100387.81
2022-10-21T16:50:46.223Z,100389.63
2022-10-21T16:53:31.821Z,100387.62
2022-10-21T16:58:32.491Z,100402.78
2022-10-21T17:01:07.900Z,100390.31
2022-10-21T17:03:36.691Z,100392.81
2022-10-21T17:06:14.590Z,100394.28
2022-10-21T17:08:47.430Z,100405.09
2022-10-21T17:11:29.725Z,100401.31
2022-10-21T17:14:01.793Z,100399.66
2022-10-21T17:16:37.322Z,100398.19
2022-10-21T17:19:10.639Z,100390.78
2022-10-21T17:21:44.928Z,100382.56
2022-10-21T17:24:18.375Z,100383.13
2022-10-21T17:26:51.058Z,100387.62
2022-10-21T17:29:27.316Z,100391.25
2022-10-21T17:32:04.584Z,100385.84
2022-10-21T17:34:42.911Z,100402.47
2022-10-21T17:37:16.571Z,100381.84
2022-10-21T17:39:44.742Z,100395.47
2022-10-21T17:42:17.254Z,100376.00
2022-10-21T17:44:44.984Z,100372.31
2022-10-21T17:47:14.138Z,100379.28
2022-10-21T17:49:41.987Z,100381.31
2022-10-21T17:52:12.146Z,100370.72
2022-10-21T17:54:41.690Z,100384.81
2022-10-21T17:57:08.728Z,100376.19
2022-10-21T17:59:35.843Z,100377.56
2022-10-21T18:02:02.797Z,100375.25
2022-10-21T18:04:32.796Z,100361.38
2022-10-21T18:07:02.374Z,100367.06
2022-10-21T18:09:29.421Z,100363.69
2022-10-21T18:11:58.597Z,100359.44
2022-10-21T18:14:30.360Z,100360.38
2022-10-21T18:16:57.368Z,100364.78
2022-10-21T18:19:24.437Z,100360.72
2022-10-21T18:21:55.198Z,100360.84
2022-10-21T18:24:27.583Z,100363.66
2022-10-21T18:55:12.306Z,100380.56
2022-10-21T18:57:46.343Z,100381.38
2022-10-21T19:00:13.347Z,100383.25
2022-10-21T19:02:43.241Z,100393.44
2022-10-21T19:05:10.416Z,100391.56
2022-10-21T19:07:37.568Z,100391.72
2022-10-21T19:10:05.925Z,100389.41
2022-10-21T19:12:32.842Z,100390.53
2022-10-21T19:14:59.708Z,100387.22
2022-10-21T19:17:30.103Z,100398.25
2022-10-21T19:19:59.304Z,100395.81
2022-10-21T19:24:56.964Z,100395.56
2022-10-21T19:27:26.054Z,100397.28
2022-10-21T19:29:53.163Z,100402.25
2022-10-21T19:32:24.507Z,100405.81
2022-10-21T19:34:53.599Z,100413.34
2022-10-21T19:37:22.777Z,100426.50
2022-10-21T19:39:49.811Z,100419.19
2022-10-21T19:42:17.376Z,100426.03
2022-10-21T19:44:47.997Z,100436.22
2022-10-21T19:47:17.918Z,100431.50
2022-10-21T19:49:47.037Z,100428.84
2022-10-21T19:52:17.003Z,100434.53
2022-10-21T19:54:44.968Z,100435.19
2022-10-21T19:59:56.118Z,100443.94
2022-10-21T20:02:36.443Z,100440.34
2022-10-21T20:05:08.341Z,100452.75
2022-10-21T20:07:43.645Z,100453.66
2022-10-21T20:10:18.500Z,100454.53
2022-10-21T20:12:47.745Z,100453.44
2022-10-21T20:15:17.508Z,100461.63
2022-10-21T20:17:48.085Z,100469.41
2022-10-21T20:20:17.487Z,100464.00
2022-10-21T20:22:48.068Z,100467.59
2022-10-21T20:25:17.571Z,100466.81
2022-10-21T20:27:48.391Z,100467.75
2022-10-21T20:30:19.645Z,100462.00
2022-10-21T20:32:53.091Z,100466.28
2022-10-21T20:35:23.231Z,100464.59
2022-10-21T20:37:53.121Z,100466.22
2022-10-21T20:40:31.835Z,100472.13
2022-10-21T20:42:58.909Z,100479.06
2022-10-21T20:45:29.231Z,100475.62
2022-10-21T20:47:56.200Z,100474.06
2022-10-21T20:50:23.410Z,100476.34
2022-10-21T20:52:51.527Z,100472.91
2022-10-21T20:55:24.713Z,100467.37
2022-10-21T20:57:51.629Z,100474.34
2022-10-21T21:00:18.666Z,100475.06
2022-10-21T21:02:48.242Z,100479.59
2022-10-21T21:05:17.203Z,100480.97
2022-10-21T21:07:44.987Z,100473.56
2022-10-21T21:10:11.820Z,100471.28
2022-10-21T21:12:39.049Z,100469.62
2022-10-21T21:15:06.303Z,100475.78
2022-10-21T21:17:37.183Z,100475.50
2022-10-21T21:20:04.416Z,100472.66
2022-10-21T21:22:34.326Z,100484.44
2022-10-21T21:25:01.762Z,100491.13
2022-10-21T21:27:29.055Z,100481.84
2022-10-21T21:29:56.115Z,100486.03
2022-10-21T21:32:25.293Z,100479.78
2022-10-21T21:34:55.961Z,100480.56
2022-10-21T21:37:26.685Z,100479.72
2022-10-21T21:39:54.078Z,100484.69
2022-10-21T21:42:20.986Z,100477.50
2022-10-21T21:44:48.277Z,100480.13
2022-10-21T21:47:18.438Z,100475.66
2022-10-21T21:49:45.303Z,100485.00
2022-10-21T21:52:13.876Z,100492.84
2022-10-21T21:54:42.996Z,100476.88
2022-10-21T21:57:26.837Z,100478.78
2022-10-21T21:59:54.986Z,100482.28
2022-10-21T22:02:32.073Z,100477.66
2022-10-21T22:05:01.275Z,100481.81
2022-10-21T22:07:29.623Z,100472.97
2022-10-21T22:09:58.423Z,100459.50
2022-10-21T22:12:25.695Z,100454.47
2022-10-21T22:14:55.147Z,100460.03
2022-10-21T22:17:22.427Z,100455.16
2022-10-21T22:19:53.695Z,100456.84
2022-10-21T22:22:23.771Z,100463.34
2022-10-21T22:24:53.843Z,100466.53
2022-10-21T22:27:20.790Z,100469.25
2022-10-21T22:29:47.843Z,100467.50
2022-10-21T22:32:17.960Z,100451.56
2022-10-21T22:34:45.603Z,100454.81
2022-10-21T22:37:12.506Z,100456.50
2022-10-21T22:39:39.629Z,100452.94
2022-10-21T22:42:08.830Z,100454.81
2022-10-21T22:44:35.798Z,100450.78
2022-10-21T22:47:08.914Z,100454.03
2022-10-21T22:49:36.043Z,100463.13
2022-10-21T22:52:03.046Z,100453.34
2022-10-21T22:54:48.637Z,100472.69
2022-10-21T22:57:22.256Z,100459.78
2022-10-21T22:59:53.106Z,100460.06
2022-10-21T23:02:23.726Z,100463.94
2022-10-21T23:04:50.719Z,100474.06
2022-10-21T23:07:18.064Z,100471.84
2022-10-21T23:09:47.431Z,100481.66
2022-10-21T23:12:17.215Z,100471.53
2022-10-21T23:14:44.411Z,100474.13
2022-10-21T23:17:11.553Z,100470.87
2022-10-21T23:19:38.909Z,100477.22
2022-10-21T23:22:08.477Z,100466.75
2022-10-21T23:24:40.556Z,100466.19
2022-10-21T23:27:08.122Z,100470.25
2022-10-21T23:29:58.126Z,100472.59
2022-10-21T23:32:30.865Z,100464.16
2022-10-21T23:35:02.586Z,100472.72
2022-10-21T23:37:29.656Z,100477.19
2022-10-21T23:39:56.581Z,100464.06
2022-10-21T23:42:26.505Z,100463.25
2022-10-21T23:44:53.412Z,100463.97
2022-10-21T23:47:27.359Z,100463.25
2022-10-21T23:49:58.500Z,100471.16
2022-10-21T23:52:33.743Z,100470.19
2022-10-21T23:55:08.366Z,100464.88
2022-10-21T23:57:42.653Z,100469.16
